Shercock, Ireland
Current Conditions -  °F | °C
As of 9:30 PM on Thursday 23 Oct 2014 (Local Time) from EIDW Reporting Station
Light Rain Light Rain  
Wind Chill: 54°   Ceiling: 2200
Heat Index: 54°   Visibility: 5mi
Dew Point: 50°   Wind: 21mph
Humidity: 88%   Direction: 280°W
Pressure: 29.85"   Gusts: NA
Location:  54°N, 6.9°W
Report Text: EIDW 232030Z 28018KT 8000 -RADZ FEW005 SCT012 BKN022 12/10 Q1011 NOSIG
Loading
Personal Weather Stations






























Interactive Weather Map
Tropical Storm Tracking
New forecast layout! Learn more

10-Day Weather Forecast

Advertisements
Track Severe Weather on mobile